This is the latest recevied weather packets stored in our database for station/object KD4WXI. If no packets are shown the sender has not sent any weather packets the latest 10 day(s).
| Time | Temp. | Humidity | Pressure | Rain* | Wind** | Luminosity | Snow |
|---|---|---|---|---|---|---|---|
| 1777999850 | 25.56° C | 43% | 1016.9 hPa | 0 mm | - | 773 W/m² | - |
| 1777999546 | 25.56° C | 42% | 1016.9 hPa | 0 mm | - | 668 W/m² | - |
| 1777999244 | 25° C | 42% | 1016.8 hPa | 0 mm | - | 682 W/m² | - |
| 1777998943 | 25° C | 41% | 1016.9 hPa | 0 mm | - | 629 W/m² | - |
| 1777998639 | 25.56° C | 43% | 1016.9 hPa | 0 mm | - | 602 W/m² | - |
| 1777998338 | 25° C | 45% | 1016.9 hPa | 0 mm | - | 582 W/m² | - |
| 1777998035 | 25.56° C | 45% | 1016.9 hPa | 0 mm | - | 606 W/m² | - |
| 1777997732 | 25° C | 45% | 1017 hPa | 0 mm | - | 624 W/m² | - |
| 1777997429 | 25° C | 44% | 1017 hPa | 0 mm | - | 650 W/m² | - |
| 1777997127 | 25.56° C | 47% | 1017 hPa | 0 mm | - | 627 W/m² | - |
| 1777996824 | 24.44° C | 45% | 1017.3 hPa | 0 mm | - | 662 W/m² | - |
| 1777996520 | 25° C | 46% | 1017.1 hPa | 0 mm | - | 656 W/m² | - |
| 1777996217 | 25° C | 47% | 1017.1 hPa | 0 mm | - | 673 W/m² | - |
| 1777995913 | 25° C | 47% | 1016.9 hPa | 0 mm | - | 644 W/m² | - |
| 1777995609 | 24.44° C | 48% | 1017.2 hPa | 0 mm | - | 615 W/m² | - |
| 1777995307 | 24.44° C | 49% | 1017.2 hPa | 0 mm | - | 602 W/m² | - |
| 1777995003 | 24.44° C | 47% | 1017.2 hPa | 0 mm | - | 604 W/m² | - |
| 1777994700 | 24.44° C | 48% | 1017.1 hPa | 0 mm | - | 607 W/m² | - |
| 1777994395 | 23.89° C | 51% | 1017.2 hPa | 0 mm | - | 626 W/m² | - |
| 1777994091 | 23.89° C | 51% | 1017.2 hPa | 0 mm | - | 626 W/m² | - |
| 1777993789 | 23.89° C | 47% | 1017.3 hPa | 0 mm | - | 627 W/m² | - |
| 1777993485 | 23.89° C | 50% | 1017.2 hPa | 0 mm | - | 627 W/m² | - |
| 1777993185 | 23.33° C | 52% | 1017.3 hPa | 0 mm | - | 612 W/m² | - |
| 1777992883 | 23.33° C | 51% | 1017.2 hPa | 0 mm | - | 602 W/m² | - |
| 1777992581 | 23.33° C | 52% | 1017.1 hPa | 0 mm | - | 581 W/m² | - |
* Rain latest hour (hover to see other rain measurements)
** Current wind speed in m/s (hover to see current wind gust speed)